Hughes, AK

4:16 PM AKDT on April 18, 2015 (GMT -0800)
Indian Mountain | | Change Station
CLOSE
Current Station
Airport
Location: Indian Mountain,
Elevation: 1276 ft
Nearby Weather Stations

Elev 1276 ft 65.99 °N, 153.70 °W | Updated 6 hours ago

Mostly Cloudy
Mostly Cloudy
39 °F
Feels Like 31 °F
N
14
Wind Variable Wind from ENE
Gusts 19 mph

Today
High -- | Low -- °F
--% Chance of Precip.
Yesterday
High -- | Low -- °F
Precip. -- in
6:22 AM 10:07 PM
New Moon, 0% visible
Pressure 29.73 in
Visibility 10.0 miles
Clouds Scattered Clouds 10000 ft
Scattered Clouds 13000 ft
Windchill 31 °F
Dew Point 26 °F
Humidity 57%
Rainfall 0.00 in
Snow Depth Not available.
UV 1 out of 12
Pollen Not available.
Air Quality Not available.
Flu Activity Sporadic
METAR PAIM 181755Z AUTO 08014G25KT 030V110 10SM SCT100 SCT130 00/M06 A2968 RMK AO2 SLP065 T00011060 10003 21011 57014

More Conditions Fewer Conditions

Pressure 29.73 in
Visibility 10.0 miles
Clouds Scattered Clouds 10000 ft
Scattered Clouds 13000 ft
Windchill 31 °F
Dew Point 26 °F
Humidity 57%
Rainfall 0.00 in
Snow Depth Not available.
UV 1 out of 12
Pollen Not available.
Air Quality Not available.
Flu Activity Sporadic
METAR PAIM 181755Z AUTO 08014G25KT 030V110 10SM SCT100 SCT130 00/M06 A2968 RMK AO2 SLP065 T00011060 10003 21011 57014

More Conditions Fewer Conditions

10-Day Weather Forecast

Almanac

Astronomy

Apr. 18, 2015 Rise Set
Actual Time
Civil Twilight
Nautical Twilight
Astronomical Twilight
Moon
Length of Visible Light
Length of Day
Tomorrow will be .
, % of the Moon is Illuminated

Today's Extremes

State Highs State Lows

Community

WunderPhotos

Upload Photos

1,814,592 photos uploaded!

WunderBlogs® & News

Nearby

Air Quality

  Air Quality AQ Index Pollutant
Not available.

Snow Depth

Station Depth Elevation

Earthquake Activity

City Distance Mag. Time & Date
Minimum magnitude displayed is 2.5.

Coastal Water Temperatures

Place Temperature

Stations

Nearby Weather Stations

Station Location Temp. Windchill Dew Point Humidity Wind Precip. Elev Updated Type